Latest Weather Observations for Essendon Airport

IDV60901

Issued at 7:51 am EDT Saturday 16 October 2021 (issued every 10 minutes, with the page automatically refreshed every 10 minutes)

About weather observations | Map of Melbourne area stations | Latest observations for Melbourne area | Other Formats
Station Details ID: 086038 Name: ESSENDON AIRPORT Lat: -37.73 Lon: 144.91 Height: 78.4 m
Data from the previous 72 hours. | See also: Recent months at Essendon Airport
Date/Time
EDT
Temp
°C
App
Temp
°C
Dew
Point
°C
Rel
Hum
%
Delta-T
°C
Wind Press
QNH
hPa
Press
MSL
hPa
Rain since
9am
mm
Dir  Spd
km/h
Gust
km/h
Spd
kts
Gust
kts
16/07:30am 11.3 7.2 10.0 92 0.7 SW 22 32 12 17 1007.5 1007.5 18.6
16/07:00am 10.9 5.6 9.8 93 0.6 SW 28 39 15 21 1006.9 1006.8 18.6
16/06:59am 10.9 5.6 9.8 93 0.6 SW 28 39 15 21 1006.9 1006.8 18.6
16/06:30am 11.0 5.5 10.5 97 0.3 SSW 30 41 16 22 1006.4 1006.3 18.6
16/06:28am 11.0 5.1 10.5 97 0.3 SSW 32 41 17 22 1006.3 1006.2 18.6
16/06:14am 11.2 6.9 10.7 97 0.3 SW 24 30 13 16 1006.0 1005.9 18.4
16/06:12am 11.2 6.5 10.7 97 0.3 SW 26 30 14 16 1005.9 1005.8 18.4
16/06:00am 11.3 6.2 10.7 96 0.3 SW 28 43 15 23 1005.5 1005.4 17.6
16/05:30am 11.3 5.9 10.8 97 0.3 WSW 30 41 16 22 1005.1 1005.0 17.6
16/05:27am 11.3 5.9 10.8 97 0.3 SW 30 41 16 22 1005.1 1005.0 17.6
16/05:00am 11.3 6.4 11.3 100 0.0 SW 28 39 15 21 1004.7 1004.6 17.4
16/04:40am 11.3 5.1 11.3 100 0.0 SW 35 48 19 26 1004.6 1004.5 17.4
16/04:32am 11.3 6.0 11.3 100 0.0 SW 30 48 16 26 1004.5 1004.4 17.4
16/04:30am 11.3 6.4 11.3 100 0.0 SW 28 35 15 19 1004.4 1004.3 17.4
16/04:28am 11.4 6.5 11.4 100 0.0 SW 28 35 15 19 1004.4 1004.3 17.4
16/04:00am 11.3 5.6 11.3 100 0.0 SW 32 43 17 23 1004.0 1003.9 17.0
16/03:59am 11.3 6.0 11.3 100 0.0 SW 30 41 16 22 1004.0 1003.9 17.0
16/03:30am 11.3 5.4 11.3 100 0.0 WSW 33 44 18 24 1003.5 1003.4 16.8
16/03:00am 11.3 5.1 11.3 100 0.0 WSW 35 50 19 27 1003.1 1003.0 16.6
16/02:30am 11.3 5.1 11.3 100 0.0 WSW 35 48 19 26 1002.8 1002.7 16.4
16/02:00am 11.3 4.7 11.3 100 0.0 WSW 37 50 20 27 1002.6 1002.5 16.2
16/01:30am 11.2 3.8 11.2 100 0.0 WSW 41 56 22 30 1002.4 1002.3 16.0
16/01:05am 11.0 3.5 10.8 99 0.1 WSW 41 59 22 32 1002.2 1002.1 15.8
16/01:00am 11.0 3.5 10.8 99 0.1 WSW 41 56 22 30 1002.2 1002.1 15.8
16/12:30am 10.9 2.9 10.4 97 0.3 WSW 43 61 23 33 1002.1 1002.0 15.8
16/12:29am 10.9 2.9 10.4 97 0.3 WSW 43 61 23 33 1002.0 1001.9 15.8
16/12:21am 10.9 2.7 10.3 96 0.3 WSW 44 57 24 31 1001.8 1001.8 15.8
16/12:06am 10.9 3.6 10.3 96 0.3 WSW 39 50 21 27 1001.8 1001.8 15.8
16/12:00am 10.8 3.1 10.2 96 0.3 WSW 41 54 22 29 1002.0 1001.9 15.8
 
Date/Time
EDT
Temp
°C
App
Temp
°C
Dew
Point
°C
Rel
Hum
%
Delta-T
°C
Wind Press
QNH
hPa
Press
MSL
hPa
Rain since
9am
mm
Dir  Spd
km/h
Gust
km/h
Spd
kts
Gust
kts
15/11:38pm 10.7 2.9 9.9 95 0.4 WSW 41 59 22 32 1001.7 1001.7 15.8
15/11:30pm 10.7 3.3 9.9 95 0.4 WSW 39 56 21 30 1001.7 1001.7 15.8
15/11:09pm 10.7 2.9 9.9 95 0.4 WSW 41 56 22 30 1001.8 1001.8 15.6
15/11:00pm 10.7 2.9 9.9 95 0.4 WSW 41 59 22 32 1001.8 1001.8 15.6
15/10:59pm 10.6 2.8 9.8 95 0.4 WSW 41 59 22 32 1001.7 1001.7 15.6
15/10:58pm 10.7 2.6 9.9 95 0.4 WSW 43 59 23 32 1001.8 1001.8 15.6
15/10:40pm 10.5 3.9 10.0 97 0.3 W 35 54 19 29 1001.8 1001.8 15.4
15/10:30pm 10.5 3.1 10.0 97 0.3 W 39 52 21 28 1002.0 1001.9 15.2
15/10:14pm 10.5 4.5 10.2 98 0.2 W 32 44 17 24 1002.1 1002.0 15.0
15/10:00pm 10.4 3.8 9.9 97 0.3 W 35 50 19 27 1002.1 1002.0 14.6
15/09:30pm 10.4 4.3 9.9 97 0.3 W 32 46 17 25 1002.1 1002.0 13.8
15/09:00pm 10.6 5.4 10.1 97 0.3 W 28 37 15 20 1002.1 1002.0 12.8
15/08:30pm 10.7 6.6 10.2 97 0.3 W 22 32 12 17 1002.3 1002.2 11.6
15/08:06pm 10.6 6.9 10.1 97 0.3 WNW 20 28 11 15 1002.1 1002.0 10.8
15/08:00pm 10.5 6.9 10.0 97 0.3 WNW 19 28 10 15 1002.1 1002.0 10.8
15/07:30pm 10.7 7.0 10.2 97 0.3 WNW 20 30 11 16 1002.0 1001.9 9.4
15/07:01pm 10.8 7.1 10.2 96 0.3 W 20 28 11 15 1002.0 1001.9 7.8
15/07:00pm 10.7 7.0 10.1 96 0.3 W 20 28 11 15 1002.0 1001.9 7.6
15/06:42pm 11.0 6.9 10.2 95 0.4 W 22 30 12 16 1002.0 1001.9 6.2
15/06:40pm 11.0 6.5 10.1 94 0.5 W 24 30 13 16 1002.0 1001.9 6.0
15/06:30pm 11.0 6.1 9.9 93 0.6 W 26 35 14 19 1001.8 1001.8 5.6
15/06:29pm 11.1 5.8 10.0 93 0.6 W 28 35 15 19 1001.8 1001.8 5.4
15/06:00pm 11.4 7.7 10.0 91 0.7 W 20 28 11 15 1001.4 1001.4 4.0
15/05:30pm 11.5 8.0 10.2 92 0.7 WNW 19 26 10 14 1001.4 1001.4 3.2
15/05:00pm 11.4 7.4 10.3 93 0.6 W 22 30 12 16 1001.5 1001.5 3.0
15/04:52pm 11.3 6.8 10.2 93 0.6 W 24 33 13 18 1001.5 1001.5 2.8
15/04:30pm 11.6 6.1 10.5 93 0.6 WSW 30 41 16 22 1001.4 1001.4 2.6
15/04:08pm 11.6 6.0 10.2 91 0.7 W 30 48 16 26 1001.4 1001.4 2.4
15/04:06pm 11.5 6.3 10.1 91 0.7 W 28 46 15 25 1001.4 1001.4 2.4
15/04:00pm 11.7 7.7 10.3 91 0.7 WNW 22 32 12 17 1001.4 1001.4 2.2
15/03:30pm 11.5 7.8 9.4 87 1.1 WNW 19 28 10 15 1001.5 1001.5 1.4
15/03:00pm 11.7 6.8 9.8 88 1.0 W 26 37 14 20 1001.8 1001.8 0.6
15/02:49pm 11.6 5.7 9.2 85 1.2 W 30 43 16 23 1001.8 1001.8 0.4
15/02:30pm 11.9 4.3 9.1 83 1.4 WSW 39 54 21 29 1002.1 1002.0 0.0
15/02:22pm 13.2 6.8 8.7 74 2.3 WSW 32 54 17 29 1002.1 1002.0 0.0
15/02:00pm 13.6 6.4 9.1 74 2.3 WSW 37 46 20 25 1002.0 1001.9 0.0
15/01:30pm 15.8 9.1 7.3 57 4.2 WSW 32 43 17 23 1001.8 1001.8 0.0
15/01:00pm 16.2 10.2 7.2 55 4.5 WSW 28 37 15 20 1002.0 1001.9 0.0
15/12:30pm 15.1 9.3 6.4 56 4.2 WSW 26 37 14 20 1002.4 1002.3 0.0
15/12:00pm 14.6 9.3 6.9 60 3.8 WSW 24 35 13 19 1002.8 1002.7 0.0
15/11:30am 14.0 9.2 7.5 65 3.2 WSW 22 32 12 17 1003.2 1003.1 0.0
15/11:00am 14.1 9.9 8.1 67 3.0 WSW 20 32 11 17 1003.6 1003.5 0.0
15/10:30am 14.2 10.7 8.8 70 2.7 WSW 17 24 9 13 1003.7 1003.6 0.0
15/10:00am 13.2 9.7 8.7 74 2.3 W 17 24 9 13 1003.9 1003.8 0.0
15/09:30am 12.1 9.4 8.9 81 1.6 WNW 13 19 7 10 1004.2 1004.1 0.0
15/09:00am 11.5 8.9 9.4 87 1.1 W 13 17 7 9 1004.2 1004.1 4.2
15/08:30am 10.0 6.7 8.1 88 0.9 W 15 20 8 11 1004.3 1004.2 4.2
15/08:23am 9.9 6.7 8.3 90 0.8 W 15 20 8 11 1004.3 1004.2 4.2
15/08:00am 9.3 5.6 7.9 91 0.7 WSW 17 22 9 12 1004.2 1004.1 4.2
15/07:30am 9.0 6.0 7.6 91 0.7 W 13 15 7 8 1003.8 1003.7 4.2
15/07:00am 8.3 5.5 7.1 92 0.6 WNW 11 15 6 8 1003.4 1003.3 4.2
15/06:43am 8.2 5.1 7.1 93 0.5 WNW 13 17 7 9 1003.3 1003.2 4.2
15/06:30am 8.1 4.9 6.9 92 0.6 WNW 13 15 7 8 1003.3 1003.2 4.2
15/06:00am 8.1 4.9 7.0 93 0.5 WNW 13 15 7 8 1003.1 1003.0 4.2
15/05:30am 8.0 5.3 7.2 95 0.4 WNW 11 15 6 8 1002.9 1002.8 4.2
15/05:28am 8.0 5.3 7.2 95 0.4 WNW 11 15 6 8 1002.9 1002.8 4.2
15/05:13am 8.2 5.5 7.4 95 0.4 WNW 11 17 6 9 1002.8 1002.7 4.2
15/05:07am 8.3 5.6 7.5 95 0.4 WNW 11 15 6 8 1002.8 1002.7 4.2
15/05:00am 8.3 5.7 7.7 96 0.3 NW 11 15 6 8 1002.8 1002.7 4.2
15/04:30am 8.3 5.4 8.0 98 0.1 WNW 13 17 7 9 1002.8 1002.7 4.2
15/04:01am 8.5 5.7 8.4 99 0.0 WNW 13 17 7 9 1002.8 1002.7 4.2
15/04:00am 8.5 5.3 8.4 99 0.0 WNW 15 17 8 9 1002.8 1002.7 4.2
15/03:30am 8.1 5.9 7.8 98 0.1 NW 9 11 5 6 1002.8 1002.7 4.2
15/03:00am 8.1 5.9 7.8 98 0.1 WNW 9 11 5 6 1002.6 1002.5 4.2
15/02:30am 8.0 7.4 7.6 97 0.2 CALM 0 0 0 0 1003.0 1002.9 4.2
15/02:00am 8.2 6.9 7.8 97 0.2 WNW 4 7 2 4 1003.2 1003.1 4.2
15/01:30am 9.1 7.1 8.6 97 0.2 WNW 9 11 5 6 1003.4 1003.3 4.2
15/01:00am 9.6 7.3 9.1 97 0.2 WNW 11 15 6 8 1003.4 1003.3 4.2
15/12:30am 9.8 7.6 9.2 96 0.3 WNW 11 13 6 7 1003.6 1003.5 4.2
15/12:00am 10.4 9.1 9.8 96 0.3 WSW 7 9 4 5 1003.9 1003.8 4.2
 
Date/Time
EDT
Temp
°C
App
Temp
°C
Dew
Point
°C
Rel
Hum
%
Delta-T
°C
Wind Press
QNH
hPa
Press
MSL
hPa
Rain since
9am
mm
Dir  Spd
km/h
Gust
km/h
Spd
kts
Gust
kts
14/11:30pm 10.3 8.6 9.7 96 0.3 WSW 9 11 5 6 1004.4 1004.3 4.2
14/11:00pm 10.4 8.2 9.5 94 0.5 WSW 11 13 6 7 1004.8 1004.7 4.2
14/10:30pm 11.2 9.9 10.0 92 0.6 WNW 7 9 4 5 1005.1 1005.0 4.0
14/10:10pm 11.1 9.3 9.4 89 0.9 WNW 9 11 5 6 1005.3 1005.2 4.0
14/10:00pm 11.1 9.3 9.5 90 0.8 NW 9 11 5 6 1005.3 1005.2 3.6
14/09:59pm 11.3 9.6 9.7 90 0.8 NW 9 11 5 6 1005.3 1005.2 3.6
14/09:40pm 12.3 11.8 10.9 91 0.7 ESE 4 6 2 3 1005.4 1005.3 2.6
14/09:30pm 12.4 11.5 10.8 90 0.8 ESE 6 7 3 4 1005.4 1005.3 2.4
14/09:20pm 12.6 11.5 10.7 88 1.0 ESE 7 9 4 5 1005.4 1005.3 1.4
14/09:00pm 13.0 11.3 10.0 82 1.6 ESE 9 15 5 8 1005.3 1005.2 0.2
14/08:30pm 13.8 10.5 9.5 75 2.2 ESE 17 24 9 13 1004.7 1004.6 0.0
14/08:00pm 14.4 9.7 7.7 64 3.3 SE 22 33 12 18 1004.1 1004.0 0.0
14/07:30pm 14.9 11.1 5.7 54 4.4 SSE 15 19 8 10 1003.9 1003.8 0.0
14/07:00pm 15.3 11.9 5.8 53 4.6 SE 13 17 7 9 1003.6 1003.5 0.0
14/06:30pm 16.1 11.8 7.1 55 4.5 SSE 19 26 10 14 1003.5 1003.4 0.0
14/06:00pm 16.0 11.6 7.5 57 4.3 S 20 26 11 14 1003.0 1002.9 0.0
14/05:30pm 16.5 11.7 7.4 55 4.6 S 22 32 12 17 1002.8 1002.7 0.0
14/05:00pm 18.5 15.1 6.0 44 6.2 WSW 13 20 7 11 1002.7 1002.6 0.0
14/04:30pm 18.5 16.1 5.4 42 6.4 SW 7 13 4 7 1002.5 1002.4 0.0
14/04:00pm 18.0 14.3 4.6 41 6.4 NW 13 22 7 12 1002.7 1002.6 0.0
14/03:30pm 18.6 16.0 6.1 44 6.2 WNW 9 13 5 7 1003.1 1003.0 0.0
14/03:00pm 17.5 14.4 5.4 45 5.9 NNE 11 15 6 8 1003.6 1003.5 0.0
14/02:30pm 17.9 14.9 6.1 46 5.8 WNW 11 26 6 14 1003.9 1003.8 0.0
14/02:00pm 18.2 14.4 5.8 44 6.1 NW 15 26 8 14 1004.3 1004.2 0.0
14/01:30pm 16.6 11.7 5.3 47 5.4 NNW 20 30 11 16 1004.6 1004.5 0.0
14/01:00pm 16.2 11.9 7.2 55 4.5 NNW 19 30 10 16 1004.9 1004.8 0.0
14/12:30pm 16.2 11.4 7.2 55 4.5 N 22 30 12 16 1005.2 1005.1 0.0
14/12:00pm 15.3 10.9 7.3 59 4.0 NNW 20 28 11 15 1005.4 1005.3 0.0
14/11:30am 14.7 10.3 7.3 61 3.7 N 20 30 11 16 1005.7 1005.6 0.0
14/11:00am 14.2 8.9 8.4 68 2.9 N 26 33 14 18 1005.9 1005.8 0.0
14/10:30am 13.1 7.7 8.0 71 2.5 N 26 35 14 19 1005.9 1005.8 0.0
14/10:00am 12.7 8.2 8.4 75 2.2 N 22 32 12 17 1005.8 1005.7 0.0
14/09:30am 11.6 5.4 7.9 78 1.8 N 30 37 16 20 1005.8 1005.7 0.0
14/09:00am 11.1 5.7 8.0 81 1.5 N 26 44 14 24 1005.9 1005.8 13.2
14/08:30am 10.2 6.5 7.8 85 1.2 N 17 26 9 14 1005.7 1005.6 13.2
14/08:00am 9.0 6.0 7.6 91 0.7 N 13 19 7 10 1005.5 1005.4 13.2
14/07:30am 7.8 4.7 7.1 95 0.3 N 13 17 7 9 1005.2 1005.1 13.2
14/07:00am 7.3 3.7 6.7 96 0.3 N 15 20 8 11 1005.0 1004.9 13.2
14/06:30am 6.9 4.4 6.5 97 0.2 N 9 13 5 7 1004.8 1004.7 13.2
14/06:00am 6.7 4.1 6.1 96 0.3 N 9 11 5 6 1004.6 1004.5 13.2
14/05:30am 7.4 5.4 7.0 97 0.2 N 7 9 4 5 1004.8 1004.7 13.2
14/05:00am 7.6 5.2 7.2 97 0.2 N 9 11 5 6 1004.5 1004.4 13.2
14/04:30am 8.6 6.6 8.5 99 0.0 N 9 13 5 7 1004.8 1004.7 13.0
14/04:00am 8.5 6.4 8.4 99 0.0 N 9 13 5 7 1005.1 1005.0 13.0
14/03:30am 8.8 6.1 8.8 100 0.0 N 13 17 7 9 1005.3 1005.2 13.0
14/03:00am 9.1 5.3 9.1 100 0.0 ESE 19 24 10 13 1004.5 1004.4 13.0
14/02:52am 9.2 6.2 9.2 100 0.0 E 15 20 8 11 1005.0 1004.9 13.0
14/02:30am 9.1 7.2 9.0 99 0.0 NNE 9 13 5 7 1007.0 1006.9 12.6
14/02:00am 9.1 7.2 9.0 99 0.0 NE 9 11 5 6 1007.4 1007.4 11.6
14/01:30am 9.0 6.2 8.7 98 0.1 N 13 19 7 10 1007.8 1007.8 10.6
14/01:28am 9.0 6.2 8.7 98 0.1 N 13 20 7 11 1007.8 1007.8 10.6
14/01:08am 9.4 6.7 8.9 97 0.2 N 13 17 7 9 1008.0 1008.0 8.6
14/01:00am 9.4 6.7 8.8 96 0.3 NNW 13 17 7 9 1007.7 1007.7 7.8
14/12:30am 9.5 6.4 8.9 96 0.3 W 15 22 8 12 1006.4 1006.3 7.2
14/12:18am 9.5 5.4 8.7 95 0.4 WSW 20 26 11 14 1006.0 1005.9 7.2
14/12:03am 9.4 5.4 8.3 93 0.5 WSW 19 26 10 14 1006.0 1005.9 6.6
14/12:00am 9.7 6.2 8.6 93 0.5 W 17 26 9 14 1006.3 1006.2 6.2
 
Date/Time
EDT
Temp
°C
App
Temp
°C
Dew
Point
°C
Rel
Hum
%
Delta-T
°C
Wind Press
QNH
hPa
Press
MSL
hPa
Rain since
9am
mm
Dir  Spd
km/h
Gust
km/h
Spd
kts
Gust
kts
13/11:41pm 9.8 4.5 8.6 92 0.6 WSW 26 33 14 18 1007.0 1006.9 4.4
13/11:30pm 10.2 5.0 9.0 92 0.6 WNW 26 35 14 19 1007.3 1007.3 3.6
13/11:21pm 10.9 6.4 10.0 94 0.5 W 24 33 13 18 1007.6 1007.6 3.0
13/11:00pm 11.4 8.1 9.7 89 0.9 W 17 28 9 15 1007.4 1007.4 1.2
13/10:30pm 12.1 6.1 8.8 80 1.7 WSW 30 44 16 24 1006.6 1006.5 0.4
13/10:00pm 12.8 6.2 8.7 76 2.1 W 33 44 18 24 1006.7 1006.6 0.4
13/09:48pm 13.8 10.5 9.5 75 2.2 WNW 17 48 9 26 1006.5 1006.4 0.4
13/09:30pm 14.5 13.9 11.8 84 1.5 E 6 9 3 5 1005.9 1005.8 0.4
13/09:00pm 14.6 15.0 11.4 81 1.7 CALM 0 0 0 0 1005.7 1005.6 0.4
13/08:30pm 14.7 15.1 11.3 80 1.8 CALM 0 7 0 4 1005.6 1005.5 0.4
13/08:00pm 15.4 12.3 11.6 78 2.1 NE 19 24 10 13 1005.2 1005.1 0.4
13/07:30pm 15.7 12.6 11.7 77 2.2 NE 19 26 10 14 1005.5 1005.4 0.4
13/07:00pm 16.0 12.8 12.0 77 2.2 NE 20 32 11 17 1005.7 1005.6 0.4
13/06:30pm 15.7 12.8 12.3 80 1.9 NE 19 26 10 14 1005.9 1005.8 0.4
13/06:00pm 15.7 13.9 13.2 85 1.4 NE 15 24 8 13 1006.2 1006.1 0.4
13/05:33pm 15.0 12.7 13.0 88 1.1 NE 17 24 9 13 1006.5 1006.4 0.4
13/05:30pm 15.0 13.1 13.0 88 1.1 NE 15 22 8 12 1006.5 1006.4 0.4
13/05:19pm 15.1 12.3 12.6 85 1.4 NNE 19 28 10 15 1006.6 1006.5 0.4
13/05:00pm 16.6 13.3 11.7 73 2.7 NNE 20 28 11 15 1006.4 1006.3 0.0
13/04:30pm 17.0 13.9 12.1 73 2.7 N 20 30 11 16 1006.8 1006.7 0.0
13/04:00pm 15.5 11.7 12.4 82 1.7 NNE 24 37 13 20 1007.2 1007.1 0.0
13/03:30pm 17.7 14.4 11.5 67 3.4 NE 20 30 11 16 1007.1 1007.0 0.0
13/03:00pm 16.7 13.1 10.5 67 3.3 NE 20 30 11 16 1007.5 1007.5 0.0
13/02:30pm 17.5 13.5 10.4 63 3.8 NE 22 33 12 18 1007.6 1007.6 0.0
13/02:00pm 17.2 13.2 10.6 65 3.5 NNE 22 32 12 17 1008.0 1008.0 0.0
13/01:30pm 17.4 13.0 10.5 64 3.7 N 24 39 13 21 1008.4 1008.4 0.0
13/01:00pm 17.9 13.1 10.3 61 4.1 N 26 39 14 21 1008.8 1008.8 0.0
13/12:30pm 17.4 13.0 8.8 57 4.5 NNE 22 33 12 18 1009.0 1009.0 0.0
13/12:00pm 16.9 13.5 9.1 60 4.1 NNE 17 26 9 14 1009.7 1009.7 0.0
13/11:30am 17.7 13.0 9.1 57 4.5 NNE 24 33 13 18 1010.0 1010.0 0.0
13/11:00am 16.2 9.5 8.2 59 4.1 NNE 33 46 18 25 1010.4 1010.4 0.0
13/10:30am 16.9 11.8 9.3 61 4.0 NNE 26 41 14 22 1010.6 1010.6 0.0
13/10:00am 15.5 11.0 8.7 64 3.5 NNE 22 32 12 17 1011.2 1011.2 0.0
13/09:30am 14.5 11.9 9.3 71 2.7 NE 13 20 7 11 1011.6 1011.6 0.0
13/09:00am 13.5 11.6 9.2 75 2.2 ENE 9 17 5 9 1011.6 1011.6 0.0
13/08:30am 12.6 11.1 9.1 79 1.8 E 7 9 4 5 1011.8 1011.8 0.0
13/08:00am 12.3 11.6 8.6 78 1.8 N 2 7 1 4 1011.9 1011.9 0.0

Latest Capital City Observations: Canberra | Sydney | Melbourne | Brisbane | Adelaide | Perth | Hobart | Darwin

Other formats

Comma delimited format used in spreadsheet applications
http://www.bom.gov.au/fwo/IDV60901/IDV60901.95866.axf

JavaScript Object Notation format (JSON) in row-major order
http://www.bom.gov.au/fwo/IDV60901/IDV60901.95866.json

Data quality

Most of these data are generated automatically and are frequently updated. Quality checks on data are not normally performed. It is possible for incorrect values to appear. Refer to information at About Latest Weather Observations and please check the disclaimer before using these data.